createdAt,value
2018-01-23T00:00:00.709Z,6.61
2018-01-23T00:01:00.765Z,6.61
2018-01-23T00:02:00.686Z,6.58
2018-01-23T00:03:00.782Z,6.58
2018-01-23T00:04:01.099Z,6.6
2018-01-23T00:05:01.140Z,6.57
2018-01-23T00:06:00.968Z,6.57
2018-01-23T00:07:01.279Z,6.54
2018-01-23T00:08:01.423Z,6.56
2018-01-23T00:09:00.708Z,6.53
2018-01-23T00:10:00.508Z,6.54
2018-01-23T00:11:00.467Z,6.51
2018-01-23T00:12:00.959Z,6.48
2018-01-23T00:13:01.291Z,6.48
2018-01-23T00:14:01.042Z,6.48
2018-01-23T00:15:01.672Z,6.5
2018-01-23T00:16:01.615Z,6.48
2018-01-23T00:17:01.337Z,6.48
2018-01-23T00:18:01.909Z,6.5
2018-01-23T00:19:01.763Z,6.48
2018-01-23T00:20:01.185Z,6.48
2018-01-23T00:21:01.200Z,6.47
2018-01-23T00:22:00.574Z,6.46
2018-01-23T00:23:01.304Z,6.47
2018-01-23T00:24:02.204Z,6.46
2018-01-23T00:25:00.441Z,6.47
2018-01-23T00:26:00.488Z,6.47
2018-01-23T00:27:00.743Z,6.51
2018-01-23T00:28:00.798Z,6.5
2018-01-23T00:29:00.950Z,6.51
2018-01-23T00:30:01.592Z,6.51
2018-01-23T00:31:01.151Z,6.54
2018-01-23T00:32:01.369Z,6.58
2018-01-23T00:33:01.717Z,6.58
2018-01-23T00:34:01.364Z,6.6
2018-01-23T00:35:02.459Z,6.58
2018-01-23T00:36:00.928Z,6.64
2018-01-23T00:37:02.214Z,6.63
2018-01-23T00:38:00.875Z,6.64
2018-01-23T00:39:00.725Z,6.67
2018-01-23T00:40:00.689Z,6.68
2018-01-23T00:41:01.105Z,6.71
2018-01-23T00:42:00.862Z,6.73
2018-01-23T00:43:01.003Z,6.7
2018-01-23T00:44:00.684Z,6.73
2018-01-23T00:45:00.608Z,6.73
2018-01-23T00:46:00.552Z,6.75
2018-01-23T00:47:01.313Z,6.75
2018-01-23T00:48:01.048Z,6.77
2018-01-23T00:49:02.228Z,6.74
2018-01-23T00:50:01.545Z,6.74
2018-01-23T00:51:01.278Z,6.75
2018-01-23T00:52:00.787Z,6.71
2018-01-23T00:53:01.235Z,6.75
2018-01-23T00:54:00.736Z,6.71
2018-01-23T00:55:00.755Z,6.74
2018-01-23T00:56:02.260Z,6.77
2018-01-23T00:57:01.652Z,6.74
2018-01-23T00:58:01.946Z,6.73
2018-01-23T00:59:00.501Z,6.7
2018-01-23T01:00:01.033Z,6.7
2018-01-23T01:01:01.680Z,6.71
2018-01-23T01:02:00.958Z,6.7
2018-01-23T01:03:01.347Z,6.67
2018-01-23T01:04:00.682Z,6.65
2018-01-23T01:05:00.858Z,6.65
2018-01-23T01:06:01.176Z,6.68
2018-01-23T01:07:01.394Z,6.67
2018-01-23T01:08:01.653Z,6.67
2018-01-23T01:09:01.343Z,6.68
2018-01-23T01:10:00.661Z,6.67
2018-01-23T01:11:00.592Z,6.65
2018-01-23T01:12:02.496Z,6.7
2018-01-23T01:13:01.354Z,6.67
2018-01-23T01:14:01.120Z,6.68
2018-01-23T01:15:01.745Z,6.67
2018-01-23T01:16:01.888Z,6.67
2018-01-23T01:17:00.562Z,6.7
2018-01-23T01:18:00.865Z,6.71
2018-01-23T01:19:00.915Z,6.71
2018-01-23T01:20:01.111Z,6.73
2018-01-23T01:21:00.652Z,6.71
2018-01-23T01:22:01.004Z,6.7
2018-01-23T01:23:00.628Z,6.68
2018-01-23T01:24:00.652Z,6.71
2018-01-23T01:25:00.694Z,6.74
2018-01-23T01:26:00.604Z,6.74
2018-01-23T01:27:01.424Z,6.75
2018-01-23T01:28:01.388Z,6.74
2018-01-23T01:29:01.655Z,6.73
2018-01-23T01:30:01.484Z,6.7
2018-01-23T01:31:01.954Z,6.7
2018-01-23T01:32:02.860Z,6.67
2018-01-23T01:33:01.643Z,6.68
2018-01-23T01:34:02.662Z,6.7
2018-01-23T01:35:00.633Z,6.68
2018-01-23T01:36:01.502Z,6.67
2018-01-23T01:37:00.771Z,6.67
2018-01-23T01:38:00.785Z,6.67
2018-01-23T01:39:00.725Z,6.67
2018-01-23T01:40:00.827Z,6.65
2018-01-23T01:41:01.006Z,6.65
2018-01-23T01:42:02.917Z,6.65
2018-01-23T01:43:00.771Z,6.65
2018-01-23T01:44:00.714Z,6.64
2018-01-23T01:45:01.080Z,6.65
2018-01-23T01:46:01.485Z,6.67
2018-01-23T01:47:00.911Z,6.67
2018-01-23T01:48:01.609Z,6.67
2018-01-23T01:49:01.150Z,6.65
2018-01-23T01:50:04.744Z,6.68
2018-01-23T01:51:00.755Z,6.7
2018-01-23T01:52:01.962Z,6.71
2018-01-23T01:53:00.746Z,6.7
2018-01-23T01:54:00.875Z,6.7
2018-01-23T01:55:00.875Z,6.7
2018-01-23T01:56:00.740Z,6.71
2018-01-23T01:57:01.412Z,6.71
2018-01-23T01:58:00.886Z,6.7
2018-01-23T01:59:01.393Z,6.73
2018-01-23T02:00:01.743Z,6.74
2018-01-23T02:01:02.734Z,6.68
2018-01-23T02:02:01.617Z,6.7
2018-01-23T02:03:00.959Z,6.75
2018-01-23T02:04:01.221Z,6.74
2018-01-23T02:05:00.498Z,6.73
2018-01-23T02:06:00.685Z,6.7
2018-01-23T02:07:00.742Z,6.7
2018-01-23T02:08:00.620Z,6.73
2018-01-23T02:09:01.667Z,6.74
2018-01-23T02:10:00.867Z,6.71
2018-01-23T02:11:01.358Z,6.74
2018-01-23T02:12:02.173Z,6.7
2018-01-23T02:13:00.731Z,6.73
2018-01-23T02:14:00.616Z,6.71
2018-01-23T02:15:00.748Z,6.74
2018-01-23T02:16:02.943Z,6.74
2018-01-23T02:17:00.692Z,6.71
2018-01-23T02:18:01.792Z,6.68
2018-01-23T02:19:03.728Z,6.71
2018-01-23T02:20:00.889Z,6.71
2018-01-23T02:21:01.031Z,6.71
2018-01-23T02:22:00.511Z,6.7
2018-01-23T02:23:01.297Z,6.67
2018-01-23T02:24:00.532Z,6.67
2018-01-23T02:25:01.508Z,6.65
2018-01-23T02:26:01.545Z,6.64
2018-01-23T02:27:01.884Z,6.65
2018-01-23T02:28:03.045Z,6.61
2018-01-23T02:29:00.795Z,6.63
2018-01-23T02:30:00.851Z,6.61
2018-01-23T02:31:00.965Z,6.63
2018-01-23T02:32:00.974Z,6.63
2018-01-23T02:33:00.510Z,6.64
2018-01-23T02:34:01.107Z,6.65
2018-01-23T02:35:00.854Z,6.64
2018-01-23T02:36:00.860Z,6.63
2018-01-23T02:37:01.384Z,6.64
2018-01-23T02:38:01.698Z,6.64
2018-01-23T02:39:01.707Z,6.63
2018-01-23T02:40:02.017Z,6.6
2018-01-23T02:41:00.950Z,6.61
2018-01-23T02:42:00.851Z,6.6
2018-01-23T02:43:04.281Z,6.57
2018-01-23T02:44:01.373Z,6.58
2018-01-23T02:45:01.645Z,6.56
2018-01-23T02:46:00.695Z,6.54
2018-01-23T02:47:00.721Z,6.56
2018-01-23T02:48:03.266Z,6.56
2018-01-23T02:49:01.528Z,6.53
2018-01-23T02:50:01.348Z,6.54
2018-01-23T02:51:00.938Z,6.5
2018-01-23T02:52:01.945Z,6.5
2018-01-23T02:53:02.406Z,6.5
2018-01-23T02:54:00.725Z,6.48
2018-01-23T02:55:00.881Z,6.48
2018-01-23T02:56:00.776Z,6.51
2018-01-23T02:57:00.912Z,6.51
2018-01-23T02:58:01.431Z,6.5
2018-01-23T02:59:02.003Z,6.51
2018-01-23T03:00:03.446Z,6.5
2018-01-23T03:01:01.950Z,6.51
2018-01-23T03:02:00.906Z,6.56
2018-01-23T03:03:00.796Z,6.56
2018-01-23T03:04:02.146Z,6.56
2018-01-23T03:05:00.894Z,6.54
2018-01-23T03:06:00.949Z,6.54
2018-01-23T03:07:00.749Z,6.54
2018-01-23T03:08:00.951Z,6.53
2018-01-23T03:09:00.685Z,6.54
2018-01-23T03:10:02.539Z,6.48
2018-01-23T03:11:00.828Z,6.51
2018-01-23T03:12:01.436Z,6.56
2018-01-23T03:13:07.048Z,6.51
2018-01-23T03:14:02.217Z,6.5
2018-01-23T03:15:01.704Z,6.5
2018-01-23T03:16:02.611Z,6.51
2018-01-23T03:17:02.117Z,6.51
2018-01-23T03:18:01.754Z,6.51
2018-01-23T03:19:01.663Z,6.5
2018-01-23T03:20:01.005Z,6.54
2018-01-23T03:21:00.799Z,6.53
2018-01-23T03:22:00.609Z,6.51
2018-01-23T03:23:03.043Z,6.5
2018-01-23T03:24:00.951Z,6.5
2018-01-23T03:25:00.754Z,6.51
2018-01-23T03:26:01.146Z,6.5
2018-01-23T03:27:00.788Z,6.47
2018-01-23T03:28:01.859Z,6.48
2018-01-23T03:29:00.852Z,6.47
2018-01-23T03:30:01.349Z,6.5
2018-01-23T03:31:01.047Z,6.5
2018-01-23T03:32:02.271Z,6.48
2018-01-23T03:33:01.476Z,6.48
2018-01-23T03:34:00.654Z,6.48
2018-01-23T03:35:01.774Z,6.46
2018-01-23T03:36:00.978Z,6.51
2018-01-23T03:37:02.083Z,6.48
2018-01-23T03:38:01.006Z,6.56
2018-01-23T03:39:02.549Z,6.51
2018-01-23T03:40:02.735Z,6.5
2018-01-23T03:41:01.949Z,6.5
2018-01-23T03:42:02.596Z,6.53
2018-01-23T03:43:03.557Z,6.5
2018-01-23T03:44:03.079Z,6.48
2018-01-23T03:45:01.387Z,6.48
2018-01-23T03:46:01.726Z,6.5
2018-01-23T03:47:01.295Z,6.51
2018-01-23T03:48:01.598Z,6.5
2018-01-23T03:49:00.852Z,6.5
2018-01-23T03:50:01.054Z,6.48
2018-01-23T03:51:00.835Z,6.5
2018-01-23T03:52:01.016Z,6.47
2018-01-23T03:53:01.133Z,6.54
2018-01-23T03:54:01.764Z,6.53
2018-01-23T03:55:01.258Z,6.53
2018-01-23T03:56:00.832Z,6.54
2018-01-23T03:57:00.923Z,6.53
2018-01-23T03:58:01.872Z,6.53
2018-01-23T03:59:01.604Z,6.5
2018-01-23T04:00:01.638Z,6.51
2018-01-23T04:01:01.243Z,6.51
2018-01-23T04:02:01.797Z,6.54
2018-01-23T04:03:00.527Z,6.51
2018-01-23T04:04:00.851Z,6.5
2018-01-23T04:05:02.888Z,6.48
2018-01-23T04:06:01.413Z,6.5
2018-01-23T04:07:02.315Z,6.51
2018-01-23T04:08:00.968Z,6.51
2018-01-23T04:09:01.852Z,6.51
2018-01-23T04:10:01.560Z,6.53
2018-01-23T04:11:00.922Z,6.5
2018-01-23T04:12:01.828Z,6.51
2018-01-23T04:13:01.056Z,6.48
2018-01-23T04:14:00.845Z,6.51
2018-01-23T04:15:03.525Z,6.5
2018-01-23T04:16:03.111Z,6.5
2018-01-23T04:17:01.035Z,6.48
2018-01-23T04:18:01.959Z,6.51
2018-01-23T04:19:02.218Z,6.5
2018-01-23T04:20:01.015Z,6.47
2018-01-23T04:21:01.040Z,6.48
2018-01-23T04:22:01.815Z,6.47
2018-01-23T04:23:01.746Z,6.47
2018-01-23T04:24:01.161Z,6.46
2018-01-23T04:25:01.368Z,6.47
2018-01-23T04:26:02.276Z,6.47
2018-01-23T04:27:00.979Z,6.46
2018-01-23T04:28:02.097Z,6.44
2018-01-23T04:29:02.281Z,6.46
2018-01-23T04:30:02.234Z,6.44
2018-01-23T04:31:01.542Z,6.44
2018-01-23T04:32:01.622Z,6.48
2018-01-23T04:33:01.074Z,6.48
2018-01-23T04:34:01.004Z,6.48
2018-01-23T04:35:01.596Z,6.47
2018-01-23T04:36:01.624Z,6.47
2018-01-23T04:37:01.537Z,6.48
2018-01-23T04:38:02.231Z,6.48
2018-01-23T04:39:02.714Z,6.47
2018-01-23T04:40:00.792Z,6.48
2018-01-23T04:41:00.994Z,6.5
2018-01-23T04:42:00.892Z,6.5
2018-01-23T04:43:01.933Z,6.5
2018-01-23T04:44:02.275Z,6.46
2018-01-23T04:45:01.343Z,6.47
2018-01-23T04:46:01.626Z,6.47
2018-01-23T04:47:01.576Z,6.47
2018-01-23T04:48:01.847Z,6.5
2018-01-23T04:49:01.015Z,6.47
2018-01-23T04:50:01.115Z,6.46
2018-01-23T04:51:01.418Z,6.44
2018-01-23T04:52:00.781Z,6.44
2018-01-23T04:53:01.998Z,6.44
2018-01-23T04:54:01.859Z,6.43
2018-01-23T04:55:01.137Z,6.41
2018-01-23T04:56:01.778Z,6.43
2018-01-23T04:57:01.202Z,6.41
2018-01-23T04:58:01.109Z,6.41
2018-01-23T04:59:01.681Z,6.43
2018-01-23T05:00:03.031Z,6.44
2018-01-23T05:01:01.227Z,6.43
2018-01-23T05:02:01.727Z,6.43
2018-01-23T05:03:01.005Z,6.41
2018-01-23T05:04:00.918Z,6.44
2018-01-23T05:05:01.322Z,6.41
2018-01-23T05:06:00.997Z,6.43
2018-01-23T05:07:01.645Z,6.41
2018-01-23T05:08:00.952Z,6.43
2018-01-23T05:09:02.838Z,6.4
2018-01-23T05:10:01.009Z,6.4
2018-01-23T05:11:01.616Z,6.39
2018-01-23T05:12:01.995Z,6.39
2018-01-23T05:13:01.688Z,6.41
2018-01-23T05:14:02.834Z,6.37
2018-01-23T05:15:01.403Z,6.39
2018-01-23T05:16:01.229Z,6.4
2018-01-23T05:17:02.092Z,6.4
2018-01-23T05:18:02.409Z,6.43
2018-01-23T05:19:02.701Z,6.39
2018-01-23T05:20:03.641Z,6.39
2018-01-23T05:21:00.927Z,6.4
2018-01-23T05:22:01.597Z,6.41
2018-01-23T05:23:02.613Z,6.4
2018-01-23T05:24:00.972Z,6.4
2018-01-23T05:25:01.004Z,6.4
2018-01-23T05:26:01.668Z,6.37
2018-01-23T05:27:02.269Z,6.37
2018-01-23T05:28:01.868Z,6.39
2018-01-23T05:29:01.450Z,6.39
2018-01-23T05:30:02.470Z,6.39
2018-01-23T05:31:03.849Z,6.4
2018-01-23T05:32:00.869Z,6.39
2018-01-23T05:33:01.420Z,6.39
2018-01-23T05:34:02.080Z,6.4
2018-01-23T05:35:01.045Z,6.37
2018-01-23T05:36:02.106Z,6.37
2018-01-23T05:37:01.198Z,6.4
2018-01-23T05:38:01.049Z,6.37
2018-01-23T05:39:01.069Z,6.33
2018-01-23T05:40:02.033Z,6.36
2018-01-23T05:41:02.746Z,6.35
2018-01-23T05:42:00.961Z,6.35
2018-01-23T05:43:01.290Z,6.35
2018-01-23T05:44:01.207Z,6.35
2018-01-23T05:45:01.338Z,6.33
2018-01-23T05:46:00.954Z,6.32
2018-01-23T05:47:01.918Z,6.33
2018-01-23T05:48:00.979Z,6.33
2018-01-23T05:49:00.975Z,6.33
2018-01-23T05:50:01.639Z,6.32
2018-01-23T05:51:01.780Z,6.3
2018-01-23T05:52:00.919Z,6.29
2018-01-23T05:53:02.014Z,6.3
2018-01-23T05:54:01.036Z,6.3
2018-01-23T05:55:01.052Z,6.3
2018-01-23T05:56:01.061Z,6.3
2018-01-23T05:57:01.290Z,6.32
2018-01-23T05:58:01.294Z,6.32
2018-01-23T05:59:01.207Z,6.33
2018-01-23T06:00:02.620Z,6.33
2018-01-23T06:01:01.214Z,6.35
2018-01-23T06:02:01.076Z,6.33
2018-01-23T06:03:01.066Z,6.35
2018-01-23T06:04:02.381Z,6.33
2018-01-23T06:05:01.958Z,6.37
2018-01-23T06:06:00.920Z,6.32
2018-01-23T06:07:01.518Z,6.35
2018-01-23T06:08:01.478Z,6.36
2018-01-23T06:09:01.023Z,6.36
2018-01-23T06:10:02.021Z,6.37
2018-01-23T06:11:01.078Z,6.4
2018-01-23T06:12:01.275Z,6.39
2018-01-23T06:13:01.937Z,6.41
2018-01-23T06:14:01.234Z,6.44
2018-01-23T06:15:01.220Z,6.43
2018-01-23T06:16:02.811Z,6.48
2018-01-23T06:17:01.419Z,6.44
2018-01-23T06:18:01.135Z,6.46
2018-01-23T06:19:01.338Z,6.43
2018-01-23T06:20:02.577Z,6.44
2018-01-23T06:21:05.936Z,6.41
2018-01-23T06:22:01.318Z,6.43
2018-01-23T06:23:01.718Z,6.41
2018-01-23T06:24:01.307Z,6.43
2018-01-23T06:25:02.421Z,6.44
2018-01-23T06:26:02.115Z,6.43
2018-01-23T06:27:02.202Z,6.43
2018-01-23T06:28:01.563Z,6.41
2018-01-23T06:29:01.686Z,6.39
2018-01-23T06:30:02.342Z,6.37
2018-01-23T06:31:01.184Z,6.37
2018-01-23T06:32:01.282Z,6.37
2018-01-23T06:33:01.971Z,6.36
2018-01-23T06:34:01.325Z,6.36
2018-01-23T06:35:02.632Z,6.36
2018-01-23T06:36:01.164Z,6.39
2018-01-23T06:37:01.797Z,6.36
2018-01-23T06:38:01.218Z,6.35
2018-01-23T06:39:01.178Z,6.35
2018-01-23T06:40:02.503Z,6.32
2018-01-23T06:41:01.842Z,6.33
2018-01-23T06:42:01.860Z,6.33
2018-01-23T06:43:01.262Z,6.33
2018-01-23T06:44:01.883Z,6.33
2018-01-23T06:45:01.879Z,6.3
2018-01-23T06:46:01.292Z,6.32
2018-01-23T06:47:01.884Z,6.32
2018-01-23T06:48:02.871Z,6.28
2018-01-23T06:49:02.585Z,6.32
2018-01-23T06:50:02.250Z,6.29
2018-01-23T06:51:02.115Z,6.29
2018-01-23T06:52:01.305Z,6.28
2018-01-23T06:53:02.675Z,6.26
2018-01-23T06:54:02.733Z,6.29
2018-01-23T06:55:01.796Z,6.26
2018-01-23T06:56:02.026Z,6.28
2018-01-23T06:57:01.686Z,6.28
2018-01-23T06:58:01.202Z,6.26
2018-01-23T06:59:01.820Z,6.28
2018-01-23T07:00:01.857Z,6.25
2018-01-23T07:01:01.103Z,6.23
2018-01-23T07:02:02.391Z,6.22
2018-01-23T07:03:00.991Z,6.25
2018-01-23T07:04:02.206Z,6.23
2018-01-23T07:05:02.110Z,6.23
2018-01-23T07:06:01.183Z,6.26
2018-01-23T07:07:01.312Z,6.23
2018-01-23T07:08:01.277Z,6.2
2018-01-23T07:09:03.078Z,6.25
2018-01-23T07:10:03.308Z,6.22
2018-01-23T07:11:02.192Z,6.22
2018-01-23T07:12:01.623Z,6.26
2018-01-23T07:13:01.184Z,6.25
2018-01-23T07:14:01.489Z,6.23
2018-01-23T07:15:01.176Z,6.22
2018-01-23T07:16:03.027Z,6.22
2018-01-23T07:17:01.033Z,6.23
2018-01-23T07:18:01.256Z,6.22
2018-01-23T07:19:01.763Z,6.22
2018-01-23T07:20:01.801Z,6.22
2018-01-23T07:21:01.182Z,6.19
2018-01-23T07:22:01.110Z,6.2
2018-01-23T07:23:04.930Z,6.22
2018-01-23T07:24:02.570Z,6.22
2018-01-23T07:25:01.419Z,6.19
2018-01-23T07:26:02.319Z,6.22
2018-01-23T07:27:01.133Z,6.22
2018-01-23T07:28:01.061Z,6.2
2018-01-23T07:29:01.865Z,6.2
2018-01-23T07:30:03.558Z,6.2
2018-01-23T07:31:01.241Z,6.2
2018-01-23T07:32:03.444Z,6.19
2018-01-23T07:33:01.043Z,6.2
2018-01-23T07:34:01.000Z,6.19
2018-01-23T07:35:01.253Z,6.19
2018-01-23T07:36:01.206Z,6.2
2018-01-23T07:37:01.650Z,6.19
2018-01-23T07:38:00.541Z,6.19
2018-01-23T07:39:00.560Z,6.22
2018-01-23T07:40:00.682Z,6.18
2018-01-23T07:41:00.574Z,6.18
2018-01-23T07:42:00.798Z,6.2
2018-01-23T07:43:00.550Z,6.18
2018-01-23T07:44:00.586Z,6.19
2018-01-23T07:45:00.514Z,6.19
2018-01-23T07:46:01.121Z,6.19
2018-01-23T07:47:00.740Z,6.18
2018-01-23T07:48:00.602Z,6.19
2018-01-23T07:49:00.537Z,6.18
2018-01-23T07:50:00.587Z,6.19
2018-01-23T07:51:00.662Z,6.19
2018-01-23T07:52:00.568Z,6.2
2018-01-23T07:53:00.652Z,6.2
2018-01-23T07:54:00.581Z,6.2
2018-01-23T07:55:00.644Z,6.2
2018-01-23T07:56:00.602Z,6.19
2018-01-23T07:57:00.583Z,6.22
2018-01-23T07:58:00.665Z,6.22
2018-01-23T07:59:00.570Z,6.2
2018-01-23T08:00:00.537Z,6.23
2018-01-23T08:01:00.686Z,6.22
2018-01-23T08:02:00.650Z,6.22
2018-01-23T08:03:01.907Z,6.22
2018-01-23T08:04:00.540Z,6.25
2018-01-23T08:05:00.555Z,6.23
2018-01-23T08:06:00.653Z,6.22
2018-01-23T08:07:00.725Z,6.22
2018-01-23T08:08:00.896Z,6.22
2018-01-23T08:09:00.715Z,6.2
2018-01-23T08:10:00.657Z,6.25
2018-01-23T08:11:01.187Z,6.2
2018-01-23T08:12:00.745Z,6.22
2018-01-23T08:13:00.897Z,6.23
2018-01-23T08:14:00.699Z,6.25
2018-01-23T08:15:00.703Z,6.23
2018-01-23T08:16:00.589Z,6.23
2018-01-23T08:17:00.766Z,6.25
2018-01-23T08:18:00.803Z,6.23
2018-01-23T08:19:00.547Z,6.23
2018-01-23T08:20:00.701Z,6.23
2018-01-23T08:21:00.706Z,6.22
2018-01-23T08:22:00.641Z,6.26
2018-01-23T08:23:00.747Z,6.25
2018-01-23T08:24:00.685Z,6.28
2018-01-23T08:25:00.904Z,6.25
2018-01-23T08:26:00.793Z,6.26
2018-01-23T08:27:00.673Z,6.25
2018-01-23T08:28:00.704Z,6.25
2018-01-23T08:29:00.952Z,6.26
2018-01-23T08:30:04.967Z,6.28
2018-01-23T08:31:03.364Z,6.28
2018-01-23T08:32:01.827Z,6.28
2018-01-23T08:33:00.918Z,6.29
2018-01-23T08:34:01.346Z,6.3
2018-01-23T08:35:02.155Z,6.29
2018-01-23T08:36:00.602Z,6.3
2018-01-23T08:37:01.284Z,6.3
2018-01-23T08:38:02.036Z,6.32
2018-01-23T08:39:02.233Z,6.3
2018-01-23T08:40:02.436Z,6.33
2018-01-23T08:41:00.843Z,6.35
2018-01-23T08:42:00.797Z,6.37
2018-01-23T08:43:00.630Z,6.36
2018-01-23T08:44:00.981Z,6.37
2018-01-23T08:45:00.780Z,6.35
2018-01-23T08:46:00.746Z,6.36
2018-01-23T08:47:00.830Z,6.37
2018-01-23T08:48:00.911Z,6.37
2018-01-23T08:49:00.713Z,6.4
2018-01-23T08:50:00.799Z,6.41
2018-01-23T08:51:00.861Z,6.41
2018-01-23T08:52:00.773Z,6.44
2018-01-23T08:53:01.295Z,6.44
2018-01-23T08:54:00.941Z,6.43
2018-01-23T08:55:00.619Z,6.44
2018-01-23T08:56:00.845Z,6.44
2018-01-23T08:57:00.822Z,6.46
2018-01-23T08:58:00.752Z,6.46
2018-01-23T08:59:00.782Z,6.48
2018-01-23T09:00:00.778Z,6.48
2018-01-23T09:01:00.794Z,6.47
2018-01-23T09:02:00.914Z,6.5
2018-01-23T09:03:00.740Z,6.5
2018-01-23T09:04:00.791Z,6.48
2018-01-23T09:05:00.770Z,6.51
2018-01-23T09:06:00.832Z,6.51
2018-01-23T09:07:00.724Z,6.5
2018-01-23T09:08:00.844Z,6.51
2018-01-23T09:09:00.816Z,6.57
2018-01-23T09:10:00.777Z,6.56
2018-01-23T09:11:00.900Z,6.54
2018-01-23T09:12:00.737Z,6.57
2018-01-23T09:13:00.805Z,6.56
2018-01-23T09:14:00.836Z,6.56
2018-01-23T09:15:00.894Z,6.56
2018-01-23T09:16:00.682Z,6.58
2018-01-23T09:17:00.854Z,6.58
2018-01-23T09:18:00.824Z,6.6
2018-01-23T09:19:01.227Z,6.57
2018-01-23T09:20:00.960Z,6.63
2018-01-23T09:21:00.734Z,6.6
2018-01-23T09:22:00.772Z,6.63
2018-01-23T09:23:00.769Z,6.63
2018-01-23T09:24:01.784Z,6.63
2018-01-23T09:25:00.843Z,6.61
2018-01-23T09:26:00.792Z,6.65
2018-01-23T09:27:00.810Z,6.64
2018-01-23T09:28:00.792Z,6.67
2018-01-23T09:29:00.782Z,6.67
2018-01-23T09:30:00.836Z,6.67
2018-01-23T09:31:00.909Z,6.67
2018-01-23T09:32:00.870Z,6.65
2018-01-23T09:33:01.432Z,6.67
2018-01-23T09:34:00.815Z,6.67
2018-01-23T09:35:00.774Z,6.68
2018-01-23T09:36:00.865Z,6.67
2018-01-23T09:37:00.840Z,6.67
2018-01-23T09:38:00.913Z,6.68
2018-01-23T09:39:00.903Z,6.67
2018-01-23T09:40:00.916Z,6.67
2018-01-23T09:41:01.007Z,6.7
2018-01-23T09:42:00.898Z,6.71
2018-01-23T09:43:00.870Z,6.7
2018-01-23T09:44:00.877Z,6.67
2018-01-23T09:45:00.971Z,6.75
2018-01-23T09:46:00.899Z,6.74
2018-01-23T09:47:00.770Z,6.7
2018-01-23T09:48:00.801Z,6.74
2018-01-23T09:49:01.273Z,6.74
2018-01-23T09:50:00.850Z,6.71
2018-01-23T09:51:00.946Z,6.71
2018-01-23T09:52:01.235Z,6.7
2018-01-23T09:53:01.475Z,6.7
2018-01-23T09:54:00.717Z,6.7
2018-01-23T09:55:00.771Z,6.7
2018-01-23T09:56:00.921Z,6.71
2018-01-23T09:57:01.349Z,6.71
2018-01-23T09:58:00.882Z,6.73
2018-01-23T09:59:00.877Z,6.73
2018-01-23T10:00:00.970Z,6.73
2018-01-23T10:01:00.790Z,6.73
2018-01-23T10:02:00.919Z,6.75
2018-01-23T10:03:01.094Z,6.73
2018-01-23T10:04:00.898Z,6.75
2018-01-23T10:05:00.903Z,6.75
2018-01-23T10:06:00.937Z,6.75
2018-01-23T10:07:00.924Z,6.77
2018-01-23T10:08:01.000Z,6.78
2018-01-23T10:09:01.163Z,6.8
2018-01-23T10:10:00.908Z,6.8
2018-01-23T10:11:00.869Z,6.81
2018-01-23T10:12:00.993Z,6.83
2018-01-23T10:13:01.006Z,6.84
2018-01-23T10:14:00.968Z,6.87
2018-01-23T10:15:00.943Z,6.83
2018-01-23T10:16:01.018Z,6.87
2018-01-23T10:17:00.918Z,6.85
2018-01-23T10:18:00.994Z,6.88
2018-01-23T10:19:00.906Z,6.88
2018-01-23T10:20:00.963Z,6.9
2018-01-23T10:21:01.358Z,6.9
2018-01-23T10:22:00.930Z,6.91
2018-01-23T10:23:00.995Z,6.94
2018-01-23T10:24:00.974Z,6.92
2018-01-23T10:25:00.969Z,6.96
2018-01-23T10:26:00.976Z,6.96
2018-01-23T10:27:01.004Z,6.98
2018-01-23T10:28:00.967Z,6.98
2018-01-23T10:29:00.928Z,6.99
2018-01-23T10:30:00.914Z,6.98
2018-01-23T10:31:01.069Z,7.01
2018-01-23T10:32:00.910Z,7.01
2018-01-23T10:33:00.890Z,7.02
2018-01-23T10:34:00.965Z,7.03
2018-01-23T10:35:01.050Z,7.05
2018-01-23T10:36:00.725Z,7.08
2018-01-23T10:37:00.916Z,7.08
2018-01-23T10:38:01.170Z,7.08
2018-01-23T10:39:00.901Z,7.08
2018-01-23T10:40:00.946Z,7.11
2018-01-23T10:41:01.419Z,7.11
2018-01-23T10:42:00.950Z,7.12
2018-01-23T10:43:01.028Z,7.09
2018-01-23T10:44:01.102Z,7.13
2018-01-23T10:45:01.069Z,7.13
2018-01-23T10:46:01.019Z,7.13
2018-01-23T10:47:00.973Z,7.15
2018-01-23T10:48:01.048Z,7.13
2018-01-23T10:49:01.213Z,7.16
2018-01-23T10:50:01.078Z,7.16
2018-01-23T10:51:00.947Z,7.16
2018-01-23T10:52:00.983Z,7.16
2018-01-23T10:53:00.972Z,7.2
2018-01-23T10:54:01.059Z,7.19
2018-01-23T10:55:00.987Z,7.2
2018-01-23T10:56:01.068Z,7.2
2018-01-23T10:57:00.849Z,7.24
2018-01-23T10:58:00.914Z,7.24
2018-01-23T10:59:01.054Z,7.26
2018-01-23T11:00:01.051Z,7.26
2018-01-23T11:01:01.050Z,7.26
2018-01-23T11:02:01.058Z,7.27
2018-01-23T11:03:01.003Z,7.27
2018-01-23T11:04:01.035Z,7.3
2018-01-23T11:05:00.953Z,7.29
2018-01-23T11:06:01.102Z,7.29
2018-01-23T11:07:01.169Z,7.33
2018-01-23T11:08:01.166Z,7.31
2018-01-23T11:09:01.225Z,7.34
2018-01-23T11:10:01.194Z,7.33
2018-01-23T11:11:01.104Z,7.34
2018-01-23T11:12:01.118Z,7.36
2018-01-23T11:13:01.160Z,7.36
2018-01-23T11:14:01.157Z,7.4
2018-01-23T11:15:01.163Z,7.4
2018-01-23T11:16:01.170Z,7.41
2018-01-23T11:17:01.102Z,7.41
2018-01-23T11:18:01.359Z,7.44
2018-01-23T11:19:01.260Z,7.43
2018-01-23T11:20:01.168Z,7.47
2018-01-23T11:21:01.125Z,7.47
2018-01-23T11:22:01.325Z,7.5
2018-01-23T11:23:01.840Z,7.51
2018-01-23T11:24:01.285Z,7.51
2018-01-23T11:25:01.099Z,7.51
2018-01-23T11:26:01.114Z,7.57
2018-01-23T11:27:01.040Z,7.55
2018-01-23T11:28:01.170Z,7.54
2018-01-23T11:29:01.319Z,7.57
2018-01-23T11:30:01.189Z,7.57
2018-01-23T11:31:01.129Z,7.59
2018-01-23T11:32:01.319Z,7.57
2018-01-23T11:33:01.095Z,7.59
2018-01-23T11:34:01.229Z,7.61
2018-01-23T11:35:01.202Z,7.61
2018-01-23T11:36:01.102Z,7.61
2018-01-23T11:37:01.104Z,7.67
2018-01-23T11:38:01.075Z,7.68
2018-01-23T11:39:01.236Z,7.67
2018-01-23T11:40:01.459Z,7.67
2018-01-23T11:41:01.213Z,7.67
2018-01-23T11:42:01.153Z,7.69
2018-01-23T11:43:01.236Z,7.72
2018-01-23T11:44:01.128Z,7.72
2018-01-23T11:45:01.239Z,7.71
2018-01-23T11:46:01.327Z,7.71
2018-01-23T11:47:01.177Z,7.75
2018-01-23T11:48:01.173Z,7.74
2018-01-23T11:49:01.163Z,7.78
2018-01-23T11:50:01.309Z,7.75
2018-01-23T11:51:01.216Z,7.77
2018-01-23T11:52:01.324Z,7.81
2018-01-23T11:53:01.255Z,7.77
2018-01-23T11:54:01.519Z,7.82
2018-01-23T11:55:01.265Z,7.81
2018-01-23T11:56:01.514Z,7.77
2018-01-23T11:57:01.207Z,7.81
2018-01-23T11:58:01.172Z,7.82
2018-01-23T11:59:01.131Z,7.84
2018-01-23T12:00:01.249Z,7.81
2018-01-23T12:01:01.249Z,7.82
2018-01-23T12:02:01.255Z,7.82
2018-01-23T12:03:01.332Z,7.8
2018-01-23T12:04:01.114Z,7.82
2018-01-23T12:05:01.274Z,7.82
2018-01-23T12:06:01.382Z,7.82
2018-01-23T12:07:01.162Z,7.82
2018-01-23T12:08:01.192Z,7.82
2018-01-23T12:09:00.313Z,7.8
2018-01-23T12:10:00.309Z,7.8
2018-01-23T12:11:00.403Z,7.84
2018-01-23T12:12:00.277Z,7.84
2018-01-23T12:13:00.633Z,7.81
2018-01-23T12:14:00.387Z,7.82
2018-01-23T12:15:00.358Z,7.84
2018-01-23T12:16:00.231Z,7.85
2018-01-23T12:17:00.235Z,7.86
2018-01-23T12:18:00.345Z,7.86
2018-01-23T12:19:00.354Z,7.86
2018-01-23T12:20:00.197Z,7.86
2018-01-23T12:21:00.180Z,7.89
2018-01-23T12:22:00.202Z,7.89
2018-01-23T12:23:00.269Z,7.89
2018-01-23T12:24:01.361Z,7.88
2018-01-23T12:25:00.357Z,7.91
2018-01-23T12:26:00.236Z,7.88
2018-01-23T12:27:00.205Z,7.88
2018-01-23T12:28:00.238Z,7.88
2018-01-23T12:29:00.274Z,7.86
2018-01-23T12:30:00.241Z,7.91
2018-01-23T12:31:00.323Z,7.88
2018-01-23T12:32:00.185Z,7.89
2018-01-23T12:33:00.329Z,7.89
2018-01-23T12:34:00.508Z,7.88
2018-01-23T12:35:00.275Z,7.86
2018-01-23T12:36:00.364Z,7.86
2018-01-23T12:37:00.241Z,7.88
2018-01-23T12:38:00.194Z,7.92
2018-01-23T12:39:00.669Z,7.91
2018-01-23T12:40:00.489Z,7.89
2018-01-23T12:41:00.677Z,7.86
2018-01-23T12:42:00.676Z,7.86
2018-01-23T12:43:00.704Z,7.89
2018-01-23T12:44:00.685Z,7.88
2018-01-23T12:45:00.548Z,7.86
2018-01-23T12:46:00.647Z,7.85
2018-01-23T12:47:00.599Z,7.89
2018-01-23T12:48:00.564Z,7.85
2018-01-23T12:49:00.621Z,7.88
2018-01-23T12:50:00.448Z,7.88
2018-01-23T12:51:00.798Z,7.88
2018-01-23T12:52:00.802Z,7.91
2018-01-23T12:53:00.665Z,7.92
2018-01-23T12:54:00.631Z,7.91
2018-01-23T12:55:00.599Z,7.95
2018-01-23T12:56:00.734Z,7.95
2018-01-23T12:57:00.589Z,7.96
2018-01-23T12:58:00.825Z,7.96
2018-01-23T12:59:00.932Z,7.99
2018-01-23T13:00:00.568Z,7.99
2018-01-23T13:01:00.625Z,8.01
2018-01-23T13:02:00.449Z,7.99
2018-01-23T13:03:00.655Z,7.99
2018-01-23T13:04:00.788Z,8.05
2018-01-23T13:05:00.554Z,8.01
2018-01-23T13:06:00.699Z,8.05
2018-01-23T13:07:00.607Z,8.02
2018-01-23T13:08:00.730Z,8.05
2018-01-23T13:09:00.901Z,8.08
2018-01-23T13:10:00.804Z,8.08
2018-01-23T13:11:00.797Z,8.08
2018-01-23T13:12:01.286Z,8.09
2018-01-23T13:13:00.694Z,8.08
2018-01-23T13:14:00.576Z,8.08
2018-01-23T13:15:00.719Z,8.1
2018-01-23T13:16:00.614Z,8.13
2018-01-23T13:17:00.550Z,8.12
2018-01-23T13:18:00.660Z,8.12
2018-01-23T13:19:00.613Z,8.12
2018-01-23T13:20:00.745Z,8.14
2018-01-23T13:21:00.610Z,8.16
2018-01-23T13:22:00.699Z,8.17